Time;durP1;ratioP1;P1;durP2;ratioP2;P2;SDS_P1;SDS_P2;PMS_P1;PMS_P2;Temp;Humidity;BMP_temperature;BMP_pressure;BME280_temperature;BME280_humidity;BME280_pressure;Samples;Min_cycle;Max_cycle;Signal;HPM_P1;HPM_P2
2022/03/15 00:00:42;;;;;;;80.95;40.15;;;;;;;;;;4997756;28;20023;-53
2022/03/15 00:03:08;;;;;;;85.55;41.45;;;;;;;;;;4997326;28;20036;-54
2022/03/15 00:05:34;;;;;;;83.18;40.55;;;;;;;;;;4997653;28;20088;-49
2022/03/15 00:08:00;;;;;;;99.25;46.95;;;;;;;;;;4997325;28;20408;-50
2022/03/15 00:10:27;;;;;;;99.13;48.40;;;;;;;;;;4997572;28;20023;-49
2022/03/15 00:12:57;;;;;;;95.78;47.22;;;;;;;;;;4998374;28;20026;-50
2022/03/15 00:15:24;;;;;;;124.47;61.42;;;;;;;;;;4997411;28;20487;-51
2022/03/15 00:17:50;;;;;;;151.35;68.75;;;;;;;;;;4997090;28;20361;-54
2022/03/15 00:20:22;;;;;;;186.20;89.30;;;;;;;;;;4997094;28;20022;-54
2022/03/15 00:22:49;;;;;;;194.55;94.55;;;;;;;;;;4997466;28;20077;-54
2022/03/15 00:25:16;;;;;;;194.60;93.50;;;;;;;;;;4996732;28;20109;-51
2022/03/15 00:27:43;;;;;;;198.18;97.25;;;;;;;;;;4996915;28;20105;-52
2022/03/15 00:30:10;;;;;;;202.20;97.32;;;;;;;;;;4997676;28;20030;-53
2022/03/15 00:32:36;;;;;;;198.38;97.15;;;;;;;;;;4996493;28;20048;-54
2022/03/15 00:35:16;;;;;;;210.18;101.80;;;;;;;;;;4996916;28;20057;-53
2022/03/15 00:37:43;;;;;;;209.15;104.45;;;;;;;;;;4996887;28;20390;-53
2022/03/15 00:40:10;;;;;;;180.85;92.30;;;;;;;;;;4996526;28;20023;-56
2022/03/15 00:42:36;;;;;;;213.95;106.80;;;;;;;;;;4996649;28;20035;-52
2022/03/15 00:45:03;;;;;;;220.57;107.35;;;;;;;;;;4996458;28;20471;-52
2022/03/15 00:47:30;;;;;;;206.18;105.40;;;;;;;;;;4997040;28;20035;-50
2022/03/15 00:49:56;;;;;;;190.40;96.97;;;;;;;;;;4996593;28;20030;-51
2022/03/15 00:52:22;;;;;;;179.80;87.88;;;;;;;;;;4996781;28;20029;-54
2022/03/15 00:54:48;;;;;;;81.47;40.17;;;;;;;;;;4996611;28;20422;-53
2022/03/15 00:57:15;;;;;;;60.58;31.70;;;;;;;;;;4996364;28;20101;-50
2022/03/15 00:59:41;;;;;;;68.82;35.10;;;;;;;;;;4996286;28;20026;-51
2022/03/15 01:02:07;;;;;;;60.83;32.35;;;;;;;;;;4995276;28;20422;-51
2022/03/15 01:04:33;;;;;;;69.93;36.28;;;;;;;;;;4996204;28;20076;-52
2022/03/15 01:06:59;;;;;;;77.18;38.85;;;;;;;;;;4995893;28;20102;-50
2022/03/15 01:09:25;;;;;;;76.75;37.53;;;;;;;;;;4996198;28;20027;-51
2022/03/15 01:11:52;;;;;;;69.35;33.70;;;;;;;;;;4996751;28;20113;-55
2022/03/15 01:14:18;;;;;;;56.20;28.50;;;;;;;;;;4995907;28;20026;-53
2022/03/15 01:16:44;;;;;;;44.97;24.58;;;;;;;;;;4996900;28;20033;-52
2022/03/15 01:19:11;;;;;;;46.80;25.67;;;;;;;;;;4996372;28;20423;-51
2022/03/15 01:21:39;;;;;;;39.60;21.52;;;;;;;;;;4996172;28;20026;-55
2022/03/15 01:24:09;;;;;;;41.58;19.67;;;;;;;;;;4996210;28;20026;-53
2022/03/15 01:26:37;;;;;;;25.38;13.73;;;;;;;;;;4996389;28;20117;-53
2022/03/15 01:29:04;;;;;;;20.60;12.10;;;;;;;;;;4995788;28;20027;-54
2022/03/15 01:31:30;;;;;;;25.08;12.57;;;;;;;;;;4996112;28;20037;-53
2022/03/15 01:33:57;;;;;;;26.35;12.88;;;;;;;;;;4995795;28;20502;-53
2022/03/15 01:36:23;;;;;;;28.02;13.38;;;;;;;;;;4996117;28;20031;-55
2022/03/15 01:38:53;;;;;;;26.88;13.95;;;;;;;;;;4995965;28;20033;-52
2022/03/15 01:41:21;;;;;;;37.20;17.65;;;;;;;;;;4995298;28;20026;-55
2022/03/15 01:43:47;;;;;;;33.03;16.95;;;;;;;;;;4995839;28;20586;-56
2022/03/15 01:46:13;;;;;;;38.35;17.25;;;;;;;;;;4995820;28;20102;-54
2022/03/15 01:48:40;;;;;;;46.05;19.88;;;;;;;;;;4995430;28;20023;-53
2022/03/15 01:51:07;;;;;;;46.28;21.63;;;;;;;;;;4995591;28;20376;-54
2022/03/15 01:53:33;;;;;;;53.05;25.00;;;;;;;;;;4995399;28;20081;-51
2022/03/15 01:56:00;;;;;;;80.57;39.65;;;;;;;;;;4994976;28;20026;-52
2022/03/15 01:58:27;;;;;;;106.60;55.38;;;;;;;;;;4995604;28;20018;-49
2022/03/15 02:00:53;;;;;;;121.00;60.42;;;;;;;;;;4995404;28;20376;-52
2022/03/15 02:03:19;;;;;;;111.93;57.47;;;;;;;;;;4995107;28;20117;-51
2022/03/15 02:05:46;;;;;;;120.68;61.22;;;;;;;;;;4995013;28;20101;-52
2022/03/15 02:08:13;;;;;;;124.15;62.72;;;;;;;;;;4994491;28;20032;-52
2022/03/15 02:10:40;;;;;;;119.35;58.08;;;;;;;;;;4994652;28;20014;-53
2022/03/15 02:13:06;;;;;;;149.05;72.15;;;;;;;;;;4995282;28;20085;-53
2022/03/15 02:15:33;;;;;;;180.75;83.35;;;;;;;;;;4994989;28;20018;-51
2022/03/15 02:17:59;;;;;;;183.95;83.38;;;;;;;;;;4993696;28;20029;-54
2022/03/15 02:20:26;;;;;;;199.70;87.57;;;;;;;;;;4995261;28;20041;-53
2022/03/15 02:22:52;;;;;;;165.95;77.32;;;;;;;;;;4994629;28;20033;-54
2022/03/15 02:25:18;;;;;;;169.65;79.15;;;;;;;;;;4994841;28;20033;-52
2022/03/15 02:27:44;;;;;;;139.63;69.80;;;;;;;;;;4995026;28;20105;-49
2022/03/15 02:30:11;;;;;;;141.82;68.40;;;;;;;;;;4994406;28;20033;-49
2022/03/15 02:32:42;;;;;;;139.63;67.38;;;;;;;;;;4994881;28;20060;-54
2022/03/15 02:35:09;;;;;;;131.13;58.83;;;;;;;;;;4994649;28;20022;-52
2022/03/15 02:37:35;;;;;;;106.80;53.88;;;;;;;;;;4993996;28;20022;-53
2022/03/15 02:40:03;;;;;;;114.65;55.30;;;;;;;;;;4994506;28;20053;-48
2022/03/15 02:42:29;;;;;;;111.68;56.25;;;;;;;;;;4994480;28;20449;-53
2022/03/15 02:44:56;;;;;;;103.80;52.33;;;;;;;;;;4994451;28;20022;-56
2022/03/15 02:47:22;;;;;;;86.65;46.33;;;;;;;;;;4994819;28;20018;-51
2022/03/15 02:49:48;;;;;;;82.28;42.75;;;;;;;;;;4994399;28;20024;-56
2022/03/15 02:52:15;;;;;;;78.65;38.72;;;;;;;;;;4994400;28;20061;-52
2022/03/15 02:54:41;;;;;;;75.15;37.92;;;;;;;;;;4994273;28;20033;-50
2022/03/15 02:57:10;;;;;;;78.45;36.60;;;;;;;;;;4994550;28;20479;-52
2022/03/15 02:59:40;;;;;;;75.95;36.30;;;;;;;;;;4994090;28;20041;-50
2022/03/15 03:02:08;;;;;;;67.20;34.33;;;;;;;;;;4994593;28;20113;-51
2022/03/15 03:04:34;;;;;;;68.53;34.63;;;;;;;;;;4994464;28;20380;-52
2022/03/15 03:07:01;;;;;;;67.35;34.08;;;;;;;;;;4993805;28;20125;-49
2022/03/15 03:09:28;;;;;;;63.83;31.60;;;;;;;;;;4994347;28;20023;-51
2022/03/15 03:11:54;;;;;;;62.15;31.05;;;;;;;;;;4994445;28;20034;-54
2022/03/15 03:14:22;;;;;;;73.00;38.50;;;;;;;;;;4994369;28;20018;-54
2022/03/15 03:16:48;;;;;;;99.07;47.17;;;;;;;;;;4993723;28;20557;-54
2022/03/15 03:19:14;;;;;;;101.00;52.15;;;;;;;;;;4994170;28;20019;-54
2022/03/15 03:21:40;;;;;;;97.10;48.97;;;;;;;;;;4993926;28;20022;-50
2022/03/15 03:24:07;;;;;;;96.60;49.53;;;;;;;;;;4994091;28;20026;-55
2022/03/15 03:26:37;;;;;;;92.60;48.25;;;;;;;;;;4993694;28;20050;-52
2022/03/15 03:29:06;;;;;;;101.40;49.07;;;;;;;;;;4994022;28;20018;-50
2022/03/15 03:31:33;;;;;;;97.55;47.38;;;;;;;;;;4994185;28;20246;-47
2022/03/15 03:33:59;;;;;;;90.18;46.72;;;;;;;;;;4993826;28;20029;-52
2022/03/15 03:36:25;;;;;;;102.10;47.70;;;;;;;;;;4994176;28;20032;-52
2022/03/15 03:38:51;;;;;;;93.13;45.10;;;;;;;;;;4993929;28;20026;-55
2022/03/15 03:41:18;;;;;;;91.63;44.97;;;;;;;;;;4993569;28;20027;-49
2022/03/15 03:43:44;;;;;;;96.93;48.03;;;;;;;;;;4993768;28;20121;-56
2022/03/15 03:46:10;;;;;;;93.57;47.80;;;;;;;;;;4993812;28;20084;-50
2022/03/15 03:48:36;;;;;;;95.07;46.97;;;;;;;;;;4993783;28;20027;-51
2022/03/15 03:51:03;;;;;;;99.05;44.97;;;;;;;;;;4993979;28;20082;-49
2022/03/15 03:53:29;;;;;;;87.05;44.50;;;;;;;;;;4993955;28;20081;-54
2022/03/15 03:55:55;;;;;;;99.50;48.15;;;;;;;;;;4993382;28;20026;-51
2022/03/15 03:58:22;;;;;;;94.18;46.15;;;;;;;;;;4993710;28;20034;-56
2022/03/15 04:00:48;;;;;;;96.70;47.22;;;;;;;;;;4993603;28;20098;-51
2022/03/15 04:03:16;;;;;;;89.55;44.60;;;;;;;;;;4993069;28;20033;-52
2022/03/15 04:05:43;;;;;;;90.00;45.10;;;;;;;;;;4993795;28;20034;-53
2022/03/15 04:08:10;;;;;;;94.65;48.25;;;;;;;;;;4993417;28;20486;-50
2022/03/15 04:10:37;;;;;;;98.53;48.70;;;;;;;;;;4993809;28;20022;-53
2022/03/15 04:13:04;;;;;;;91.68;46.55;;;;;;;;;;4993763;28;20117;-51
2022/03/15 04:15:33;;;;;;;90.93;43.65;;;;;;;;;;4993531;28;20032;-53
2022/03/15 04:17:59;;;;;;;89.63;45.88;;;;;;;;;;4993461;28;20022;-51
2022/03/15 04:20:26;;;;;;;80.00;39.47;;;;;;;;;;4993721;28;20378;-54
2022/03/15 04:22:52;;;;;;;63.00;34.55;;;;;;;;;;4993657;28;20134;-49
2022/03/15 04:25:19;;;;;;;68.95;34.13;;;;;;;;;;4993633;28;20033;-51
2022/03/15 04:27:45;;;;;;;106.32;52.22;;;;;;;;;;4993628;28;20105;-50
2022/03/15 04:30:12;;;;;;;101.57;52.33;;;;;;;;;;4994638;28;20395;-53
2022/03/15 04:32:38;;;;;;;108.97;51.33;;;;;;;;;;4997072;28;20033;-50
2022/03/15 04:35:04;;;;;;;109.72;51.90;;;;;;;;;;4996919;28;20022;-53
2022/03/15 04:37:31;;;;;;;109.35;52.20;;;;;;;;;;4996416;28;20538;-51
2022/03/15 04:39:58;;;;;;;92.20;44.70;;;;;;;;;;4996956;28;20032;-53
2022/03/15 04:42:24;;;;;;;96.30;45.45;;;;;;;;;;4996286;28;20030;-51
2022/03/15 04:44:50;;;;;;;106.70;52.10;;;;;;;;;;4996339;28;20026;-52
2022/03/15 04:47:17;;;;;;;106.45;53.25;;;;;;;;;;4995998;28;20061;-52
2022/03/15 04:49:43;;;;;;;116.03;55.88;;;;;;;;;;4995933;28;20019;-53
2022/03/15 04:52:09;;;;;;;121.15;57.70;;;;;;;;;;4996300;28;20026;-52
2022/03/15 04:54:36;;;;;;;107.13;55.97;;;;;;;;;;4996345;28;20034;-52
2022/03/15 04:57:02;;;;;;;122.00;58.13;;;;;;;;;;4996404;28;20054;-55
2022/03/15 04:59:28;;;;;;;118.32;59.13;;;;;;;;;;4996458;28;20024;-52
2022/03/15 05:01:55;;;;;;;115.07;59.63;;;;;;;;;;4996135;28;20043;-55
2022/03/15 05:04:21;;;;;;;126.28;58.53;;;;;;;;;;4996062;28;20018;-54
2022/03/15 05:06:47;;;;;;;113.47;55.95;;;;;;;;;;4996373;28;20019;-55
2022/03/15 05:09:13;;;;;;;118.28;57.88;;;;;;;;;;4996337;28;20022;-52
2022/03/15 05:11:44;;;;;;;110.85;52.22;;;;;;;;;;4995946;28;20094;-55
2022/03/15 05:14:10;;;;;;;102.53;52.80;;;;;;;;;;4996236;28;20030;-54
2022/03/15 05:16:36;;;;;;;122.90;61.25;;;;;;;;;;4994762;28;20022;-50
2022/03/15 05:19:02;;;;;;;125.50;61.10;;;;;;;;;;4995386;28;20034;-55
2022/03/15 05:21:29;;;;;;;121.13;60.92;;;;;;;;;;4996029;28;20022;-50
2022/03/15 05:23:55;;;;;;;136.07;65.45;;;;;;;;;;4993749;28;20087;-51
2022/03/15 05:26:22;;;;;;;159.85;71.80;;;;;;;;;;4995320;28;20062;-53
2022/03/15 05:28:49;;;;;;;154.65;73.25;;;;;;;;;;4995738;28;20077;-51
2022/03/15 05:31:16;;;;;;;150.18;74.50;;;;;;;;;;4995856;28;20030;-51
2022/03/15 05:33:43;;;;;;;156.20;70.80;;;;;;;;;;4995030;28;20049;-53
2022/03/15 05:36:10;;;;;;;158.07;75.72;;;;;;;;;;4995380;28;20034;-54
2022/03/15 05:38:36;;;;;;;155.60;74.05;;;;;;;;;;4994500;28;20030;-50
2022/03/15 05:41:03;;;;;;;139.30;67.47;;;;;;;;;;4994516;28;20018;-52
2022/03/15 05:43:29;;;;;;;134.40;65.70;;;;;;;;;;4994819;28;20038;-54
2022/03/15 05:45:55;;;;;;;132.85;68.43;;;;;;;;;;4995265;28;20038;-51
2022/03/15 05:48:21;;;;;;;138.35;67.28;;;;;;;;;;4995382;28;20044;-53
2022/03/15 05:50:48;;;;;;;147.27;70.13;;;;;;;;;;4995568;28;20022;-55
2022/03/15 05:53:14;;;;;;;400.30;215.95;;;;;;;;;;4994967;28;20030;-51
2022/03/15 05:55:40;;;;;;;189.48;104.70;;;;;;;;;;4995380;28;20050;-55
2022/03/15 05:58:08;;;;;;;261.85;135.75;;;;;;;;;;4994977;28;20042;-50
2022/03/15 06:00:34;;;;;;;176.98;87.20;;;;;;;;;;4994357;28;20022;-51
2022/03/15 06:03:00;;;;;;;183.27;92.97;;;;;;;;;;4994318;28;20036;-52
2022/03/15 06:05:27;;;;;;;165.85;83.00;;;;;;;;;;4993480;28;20018;-51
2022/03/15 06:07:53;;;;;;;191.93;95.45;;;;;;;;;;4994677;28;20015;-51
2022/03/15 06:10:21;;;;;;;176.85;84.18;;;;;;;;;;4994549;28;20034;-52
2022/03/15 06:12:48;;;;;;;176.63;91.70;;;;;;;;;;4994895;28;20093;-51
2022/03/15 06:15:15;;;;;;;164.80;85.18;;;;;;;;;;4995267;28;20030;-49
2022/03/15 06:17:52;;;;;;;161.10;82.07;;;;;;;;;;4994407;28;20138;-52
2022/03/15 06:20:19;;;;;;;158.35;83.43;;;;;;;;;;4995122;28;20029;-56
2022/03/15 06:22:48;;;;;;;149.90;81.68;;;;;;;;;;4994448;28;20483;-57
2022/03/15 06:25:14;;;;;;;145.02;77.38;;;;;;;;;;4995114;28;20022;-56
2022/03/15 06:27:40;;;;;;;140.02;74.47;;;;;;;;;;4995076;28;20026;-52
2022/03/15 06:30:08;;;;;;;141.50;71.50;;;;;;;;;;4994711;28;20029;-56
2022/03/15 06:32:34;;;;;;;133.25;71.90;;;;;;;;;;4995521;28;20056;-54
2022/03/15 06:35:06;;;;;;;139.52;69.88;;;;;;;;;;4994348;28;20378;-53
2022/03/15 06:37:32;;;;;;;126.10;66.40;;;;;;;;;;4995223;28;20033;-54
2022/03/15 06:39:58;;;;;;;116.13;60.70;;;;;;;;;;4994873;28;20030;-51
2022/03/15 06:42:25;;;;;;;154.25;77.38;;;;;;;;;;4994408;28;20026;-51
2022/03/15 06:44:51;;;;;;;118.28;59.42;;;;;;;;;;4994954;28;20026;-54
2022/03/15 06:47:17;;;;;;;113.40;57.22;;;;;;;;;;4993473;28;20411;-51
2022/03/15 06:49:43;;;;;;;92.47;48.42;;;;;;;;;;4994162;28;20019;-54
2022/03/15 06:52:10;;;;;;;98.90;48.63;;;;;;;;;;4994549;28;20041;-55
2022/03/15 06:54:36;;;;;;;98.88;47.05;;;;;;;;;;4994102;28;20431;-56
2022/03/15 06:57:02;;;;;;;89.15;45.42;;;;;;;;;;4992458;28;20072;-55
2022/03/15 06:59:29;;;;;;;83.55;45.40;;;;;;;;;;4993395;28;20030;-49
2022/03/15 07:01:55;;;;;;;83.47;45.05;;;;;;;;;;4992987;28;20039;-53
2022/03/15 07:04:21;;;;;;;86.50;45.35;;;;;;;;;;4993646;28;20389;-56
2022/03/15 07:06:47;;;;;;;79.25;43.00;;;;;;;;;;4993629;28;20048;-48
2022/03/15 07:09:13;;;;;;;89.68;45.53;;;;;;;;;;4993729;28;20076;-54
2022/03/15 07:11:39;;;;;;;87.30;45.15;;;;;;;;;;4993731;28;20035;-55
2022/03/15 07:14:06;;;;;;;99.43;53.75;;;;;;;;;;4993214;28;20479;-52
2022/03/15 07:16:32;;;;;;;92.75;51.45;;;;;;;;;;4993843;28;20037;-54
2022/03/15 07:18:58;;;;;;;116.68;63.85;;;;;;;;;;4993547;28;20524;-54
2022/03/15 07:21:24;;;;;;;111.43;61.45;;;;;;;;;;4994322;28;20114;-53
2022/03/15 07:23:50;;;;;;;112.85;59.90;;;;;;;;;;4994007;28;20049;-56
2022/03/15 07:26:17;;;;;;;115.70;59.78;;;;;;;;;;4993750;28;20407;-50
2022/03/15 07:28:43;;;;;;;107.97;58.00;;;;;;;;;;4994001;28;20029;-52
2022/03/15 07:31:09;;;;;;;110.35;57.92;;;;;;;;;;4994351;28;20100;-55
2022/03/15 07:33:35;;;;;;;107.07;57.15;;;;;;;;;;4994373;28;20030;-55
2022/03/15 07:36:01;;;;;;;108.95;56.35;;;;;;;;;;4994031;28;20089;-53
2022/03/15 07:38:28;;;;;;;97.90;54.88;;;;;;;;;;4993482;28;20022;-56
2022/03/15 07:40:57;;;;;;;110.05;57.95;;;;;;;;;;4993792;28;20030;-57
2022/03/15 07:43:23;;;;;;;101.40;56.78;;;;;;;;;;4994176;28;20038;-55
2022/03/15 07:45:50;;;;;;;109.50;57.92;;;;;;;;;;4993888;28;20029;-49
2022/03/15 07:48:19;;;;;;;107.75;58.13;;;;;;;;;;4993755;28;20069;-55
2022/03/15 07:50:46;;;;;;;100.72;53.15;;;;;;;;;;4994202;28;20352;-53
2022/03/15 07:53:12;;;;;;;113.75;61.40;;;;;;;;;;4993353;28;20033;-48
2022/03/15 07:55:39;;;;;;;99.05;54.67;;;;;;;;;;4994288;28;20027;-54
2022/03/15 07:58:05;;;;;;;97.45;55.35;;;;;;;;;;4994497;28;20488;-54
2022/03/15 08:00:31;;;;;;;99.20;54.88;;;;;;;;;;4993314;28;20023;-55
2022/03/15 08:02:57;;;;;;;90.70;48.85;;;;;;;;;;4993859;28;20081;-56
2022/03/15 08:05:24;;;;;;;98.53;49.55;;;;;;;;;;4995813;28;20025;-55
2022/03/15 08:07:50;;;;;;;97.13;49.33;;;;;;;;;;4997348;28;20026;-55
2022/03/15 08:10:16;;;;;;;90.55;51.67;;;;;;;;;;4997924;28;20018;-51
2022/03/15 08:12:43;;;;;;;90.53;48.38;;;;;;;;;;4996276;28;20034;-54
2022/03/15 08:15:10;;;;;;;99.82;58.20;;;;;;;;;;4997225;28;20022;-53
2022/03/15 08:17:37;;;;;;;105.82;62.42;;;;;;;;;;4997340;28;20026;-51
2022/03/15 08:20:03;;;;;;;69.47;38.97;;;;;;;;;;4997145;28;20034;-56
2022/03/15 08:22:30;;;;;;;65.05;42.55;;;;;;;;;;4997850;28;20356;-52
2022/03/15 08:24:57;;;;;;;66.43;34.85;;;;;;;;;;4997827;28;20069;-54
2022/03/15 08:27:23;;;;;;;60.80;35.83;;;;;;;;;;4996749;28;20060;-54
2022/03/15 08:29:49;;;;;;;63.10;35.65;;;;;;;;;;4996960;28;20019;-56
2022/03/15 08:32:16;;;;;;;53.83;32.97;;;;;;;;;;4997507;28;20027;-52
2022/03/15 08:34:42;;;;;;;59.75;35.38;;;;;;;;;;4996755;28;20030;-55
2022/03/15 08:37:08;;;;;;;61.38;36.00;;;;;;;;;;4997129;28;20053;-59
2022/03/15 08:39:35;;;;;;;68.00;37.03;;;;;;;;;;4997113;28;20038;-56
2022/03/15 08:42:02;;;;;;;59.60;35.03;;;;;;;;;;4996319;28;20034;-57
2022/03/15 08:44:28;;;;;;;66.30;37.97;;;;;;;;;;4996633;28;20023;-56
2022/03/15 08:46:54;;;;;;;58.22;33.80;;;;;;;;;;4996898;28;20022;-58
2022/03/15 08:49:21;;;;;;;64.38;38.25;;;;;;;;;;4996659;28;20030;-54
2022/03/15 08:51:50;;;;;;;51.63;30.45;;;;;;;;;;4997510;28;20070;-56
2022/03/15 08:54:17;;;;;;;59.63;31.83;;;;;;;;;;4996836;28;20116;-51
2022/03/15 08:56:44;;;;;;;58.00;32.95;;;;;;;;;;4996277;28;20057;-53
2022/03/15 08:59:12;;;;;;;43.88;25.23;;;;;;;;;;4996560;28;20034;-54
2022/03/15 09:01:39;;;;;;;51.83;28.95;;;;;;;;;;4996430;28;20030;-54
2022/03/15 09:04:05;;;;;;;44.92;23.48;;;;;;;;;;4995930;28;20084;-49
2022/03/15 09:06:31;;;;;;;38.97;21.58;;;;;;;;;;4996655;28;20023;-49
2022/03/15 09:09:00;;;;;;;29.65;17.15;;;;;;;;;;4996057;28;20026;-48
2022/03/15 09:11:27;;;;;;;31.30;20.13;;;;;;;;;;4996356;28;20023;-49
2022/03/15 09:13:53;;;;;;;39.00;21.13;;;;;;;;;;4996408;28;20034;-54
2022/03/15 09:16:20;;;;;;;34.38;19.50;;;;;;;;;;4995350;28;20360;-53
2022/03/15 09:18:46;;;;;;;26.25;16.25;;;;;;;;;;4996086;28;20030;-56
2022/03/15 09:21:12;;;;;;;24.67;16.25;;;;;;;;;;4996253;28;20079;-52
2022/03/15 09:23:39;;;;;;;20.05;10.23;;;;;;;;;;4996096;28;20030;-52
2022/03/15 09:26:05;;;;;;;18.70;11.50;;;;;;;;;;4995986;28;20045;-54
2022/03/15 09:28:33;;;;;;;23.10;12.95;;;;;;;;;;4995941;28;20464;-52
2022/03/15 09:31:00;;;;;;;18.70;11.73;;;;;;;;;;4995773;28;20113;-52
2022/03/15 09:33:27;;;;;;;19.10;12.35;;;;;;;;;;4997112;28;20026;-53
2022/03/15 09:35:53;;;;;;;21.65;12.35;;;;;;;;;;4995789;28;20101;-52
2022/03/15 09:38:20;;;;;;;24.10;13.10;;;;;;;;;;4995865;28;20036;-51
2022/03/15 09:40:49;;;;;;;23.90;12.82;;;;;;;;;;4995845;28;20379;-53
2022/03/15 09:43:15;;;;;;;22.65;13.65;;;;;;;;;;4995597;28;20057;-53
2022/03/15 09:45:42;;;;;;;28.65;16.33;;;;;;;;;;4995513;28;20479;-50
2022/03/15 09:48:15;;;;;;;29.85;17.30;;;;;;;;;;4994787;28;20022;-51
2022/03/15 09:50:41;;;;;;;31.52;19.00;;;;;;;;;;4993667;28;20027;-50
2022/03/15 09:53:07;;;;;;;28.45;16.67;;;;;;;;;;4994234;28;20026;-50
2022/03/15 09:55:33;;;;;;;39.10;20.05;;;;;;;;;;4995676;28;20032;-54
2022/03/15 09:58:01;;;;;;;37.80;20.88;;;;;;;;;;4995507;28;20054;-51
2022/03/15 10:00:29;;;;;;;35.25;20.08;;;;;;;;;;4992341;28;20023;-52
2022/03/15 10:02:55;;;;;;;35.92;18.73;;;;;;;;;;4995099;28;20040;-54
2022/03/15 10:05:22;;;;;;;35.70;20.88;;;;;;;;;;4995024;28;20414;-55
2022/03/15 10:07:48;;;;;;;39.13;21.58;;;;;;;;;;4994728;28;20478;-53
2022/03/15 10:10:15;;;;;;;39.75;21.48;;;;;;;;;;4994695;28;20479;-54
2022/03/15 10:12:41;;;;;;;41.55;23.60;;;;;;;;;;4994674;28;20029;-55
2022/03/15 10:15:11;;;;;;;36.90;19.65;;;;;;;;;;4992326;28;20027;-54
2022/03/15 10:17:48;;;;;;;34.30;19.95;;;;;;;;;;4995099;28;20014;-53
2022/03/15 10:20:17;;;;;;;42.72;21.65;;;;;;;;;;4992996;28;20019;-53
2022/03/15 10:22:52;;;;;;;42.95;21.90;;;;;;;;;;4994333;28;20387;-49
2022/03/15 10:25:21;;;;;;;45.40;26.75;;;;;;;;;;4993377;28;20030;-55
2022/03/15 10:27:51;;;;;;;33.25;21.40;;;;;;;;;;4993622;28;20057;-55
2022/03/15 10:30:17;;;;;;;31.38;19.33;;;;;;;;;;4994347;28;20023;-60
2022/03/15 10:32:43;;;;;;;49.72;25.25;;;;;;;;;;4995222;28;20026;-54
2022/03/15 10:35:10;;;;;;;35.40;18.63;;;;;;;;;;4993971;28;20033;-51
2022/03/15 10:37:41;;;;;;;33.95;20.70;;;;;;;;;;4994278;28;20467;-51
2022/03/15 10:40:07;;;;;;;31.52;18.70;;;;;;;;;;4994257;28;20076;-57
2022/03/15 10:42:38;;;;;;;33.22;18.85;;;;;;;;;;4994754;28;20042;-53
2022/03/15 10:45:13;;;;;;;31.17;18.27;;;;;;;;;;4994351;28;20034;-54
2022/03/15 10:47:47;;;;;;;28.15;18.77;;;;;;;;;;4992065;28;20027;-53
2022/03/15 10:50:14;;;;;;;29.50;18.88;;;;;;;;;;4993922;28;20024;-56
2022/03/15 10:52:42;;;;;;;37.92;21.25;;;;;;;;;;4993596;28;20053;-58
2022/03/15 10:55:17;;;;;;;34.50;22.95;;;;;;;;;;4991255;28;20030;-57
2022/03/15 10:57:54;;;;;;;31.08;18.85;;;;;;;;;;4994098;28;20042;-56
2022/03/15 11:00:30;;;;;;;27.15;15.63;;;;;;;;;;4994120;28;20110;-54
2022/03/15 11:02:57;;;;;;;28.75;17.92;;;;;;;;;;4991636;28;20030;-52
2022/03/15 11:05:27;;;;;;;25.48;16.40;;;;;;;;;;4993985;28;20026;-53
2022/03/15 11:07:55;;;;;;;32.75;17.98;;;;;;;;;;4993807;28;20034;-53
2022/03/15 11:10:21;;;;;;;27.85;18.13;;;;;;;;;;4993906;28;20081;-55
2022/03/15 11:13:12;;;;;;;27.05;16.73;;;;;;;;;;4991288;28;20084;-59
2022/03/15 11:15:46;;;;;;;28.42;19.70;;;;;;;;;;4994050;28;20051;-53
2022/03/15 11:18:13;;;;;;;26.05;17.20;;;;;;;;;;4993483;28;20061;-57
2022/03/15 11:20:40;;;;;;;28.90;18.08;;;;;;;;;;4994314;28;20073;-53
2022/03/15 11:23:08;;;;;;;29.73;17.42;;;;;;;;;;4993672;28;20058;-52
2022/03/15 11:25:35;;;;;;;26.73;17.80;;;;;;;;;;4994275;28;20031;-54
2022/03/15 11:28:03;;;;;;;28.13;17.08;;;;;;;;;;4994194;28;20031;-52
2022/03/15 11:30:29;;;;;;;24.63;17.25;;;;;;;;;;4993557;28;20038;-52
2022/03/15 11:32:56;;;;;;;24.27;15.98;;;;;;;;;;4993890;28;20033;-56
2022/03/15 11:35:23;;;;;;;24.00;17.02;;;;;;;;;;4993623;28;20029;-54
2022/03/15 11:37:50;;;;;;;25.65;16.45;;;;;;;;;;4993798;28;20423;-55
2022/03/15 11:40:18;;;;;;;22.45;16.05;;;;;;;;;;4996083;28;20348;-59
2022/03/15 11:42:49;;;;;;;26.35;16.58;;;;;;;;;;4998572;28;20375;-54
2022/03/15 11:45:21;;;;;;;24.13;17.50;;;;;;;;;;4998140;28;20034;-54
2022/03/15 11:47:50;;;;;;;28.10;18.42;;;;;;;;;;4998153;28;20022;-58
2022/03/15 11:50:31;;;;;;;22.48;15.98;;;;;;;;;;4997941;28;20018;-53
2022/03/15 11:52:58;;;;;;;;;;;;;;;;;;4998767;28;20531;-52
2022/03/15 11:55:42;;;;;;;31.55;17.98;;;;;;;;;;4998220;28;19935;-53
2022/03/15 11:58:10;;;;;;;25.83;16.83;;;;;;;;;;4997677;28;20038;-55
2022/03/15 12:00:42;;;;;;;28.75;17.88;;;;;;;;;;4997778;28;20084;-60
2022/03/15 12:03:09;;;;;;;24.88;17.85;;;;;;;;;;4998521;28;20376;-56
2022/03/15 12:05:46;;;;;;;23.15;15.27;;;;;;;;;;4997436;28;20037;-57
2022/03/15 12:08:16;;;;;;;21.88;13.65;;;;;;;;;;4997447;28;20041;-52
2022/03/15 12:10:51;;;;;;;19.08;12.50;;;;;;;;;;4997941;28;20072;-55
2022/03/15 12:13:18;;;;;;;15.98;12.43;;;;;;;;;;4998276;28;20462;-50
2022/03/15 12:15:48;;;;;;;13.38;9.60;;;;;;;;;;4997437;28;20025;-53
2022/03/15 12:20:55;;;;;;;15.45;10.23;;;;;;;;;;4998229;28;20030;-51
2022/03/15 12:23:23;;;;;;;15.27;10.52;;;;;;;;;;4997322;28;20142;-54
2022/03/15 12:25:54;;;;;;;17.95;11.00;;;;;;;;;;4996710;28;20431;-56
2022/03/15 12:28:30;;;;;;;15.10;10.65;;;;;;;;;;4997131;28;20034;-53
2022/03/15 12:31:06;;;;;;;18.40;11.38;;;;;;;;;;4996887;28;20054;-54
2022/03/15 12:33:34;;;;;;;14.95;10.23;;;;;;;;;;4997014;28;20072;-57
2022/03/15 12:36:11;;;;;;;14.32;9.32;;;;;;;;;;4997295;28;20065;-56
2022/03/15 12:38:42;;;;;;;17.98;9.80;;;;;;;;;;4997000;28;20030;-53
2022/03/15 12:41:08;;;;;;;14.23;9.68;;;;;;;;;;4996657;28;20023;-53
2022/03/15 12:43:35;;;;;;;14.48;10.45;;;;;;;;;;4996781;28;20034;-56
2022/03/15 12:46:05;;;;;;;13.95;10.43;;;;;;;;;;4996261;28;20070;-53
2022/03/15 12:48:33;;;;;;;14.90;10.80;;;;;;;;;;4996880;28;20026;-57
2022/03/15 12:51:01;;;;;;;18.70;10.15;;;;;;;;;;4996258;28;20109;-55
2022/03/15 12:53:37;;;;;;;15.20;10.10;;;;;;;;;;4996567;28;20080;-56
2022/03/15 12:56:04;;;;;;;13.48;9.27;;;;;;;;;;4996804;28;20408;-51
2022/03/15 12:58:30;;;;;;;16.98;10.25;;;;;;;;;;4997197;28;20060;-54
2022/03/15 13:00:57;;;;;;;16.20;10.98;;;;;;;;;;4996340;28;20106;-54
2022/03/15 13:03:23;;;;;;;13.25;9.50;;;;;;;;;;4996616;28;20069;-53
2022/03/15 13:05:52;;;;;;;13.23;10.05;;;;;;;;;;4996625;28;20451;-51
2022/03/15 13:08:19;;;;;;;13.95;10.05;;;;;;;;;;4995926;28;20030;-55
2022/03/15 13:10:47;;;;;;;22.15;11.85;;;;;;;;;;4996037;28;20431;-54
2022/03/15 13:13:21;;;;;;;16.83;11.20;;;;;;;;;;4996140;28;20471;-53
2022/03/15 13:15:48;;;;;;;15.32;10.82;;;;;;;;;;4995815;28;20034;-54
2022/03/15 13:18:18;;;;;;;14.30;10.57;;;;;;;;;;4996287;28;20033;-56
2022/03/15 13:20:45;;;;;;;16.60;10.53;;;;;;;;;;4996254;28;20072;-55
2022/03/15 13:23:11;;;;;;;17.42;10.77;;;;;;;;;;4995497;28;20085;-53
2022/03/15 13:25:38;;;;;;;14.55;10.32;;;;;;;;;;4993193;28;20361;-53
2022/03/15 13:28:25;;;;;;;13.63;9.80;;;;;;;;;;4994571;28;20034;-51
2022/03/15 13:30:52;;;;;;;15.85;9.25;;;;;;;;;;4991513;28;20038;-53
2022/03/15 13:33:28;;;;;;;15.15;9.50;;;;;;;;;;4996015;28;20034;-54
2022/03/15 13:36:02;;;;;;;14.32;8.98;;;;;;;;;;4995770;28;20027;-58
2022/03/15 13:38:29;;;;;;;12.52;8.65;;;;;;;;;;4996118;28;20497;-56
2022/03/15 13:40:56;;;;;;;17.45;10.05;;;;;;;;;;4995884;28;20034;-56
2022/03/15 13:43:23;;;;;;;14.30;10.48;;;;;;;;;;4995678;28;20019;-53
2022/03/15 13:45:50;;;;;;;16.77;10.38;;;;;;;;;;4995772;28;20026;-54
2022/03/15 13:48:32;;;;;;;16.85;11.95;;;;;;;;;;4995805;28;20030;-55
2022/03/15 13:51:04;;;;;;;18.17;10.27;;;;;;;;;;4995240;28;20053;-54
2022/03/15 13:53:31;;;;;;;13.80;9.50;;;;;;;;;;4995377;28;20030;-52
2022/03/15 13:56:07;;;;;;;15.73;9.73;;;;;;;;;;4994917;28;20467;-57
2022/03/15 13:58:34;;;;;;;14.73;9.50;;;;;;;;;;4995563;28;20023;-55
2022/03/15 14:01:04;;;;;;;18.38;9.30;;;;;;;;;;4995253;28;20030;-51
2022/03/15 14:03:32;;;;;;;12.00;9.07;;;;;;;;;;4994866;28;20018;-54
2022/03/15 14:06:02;;;;;;;12.27;8.25;;;;;;;;;;4995273;28;20402;-58
2022/03/15 14:08:29;;;;;;;18.13;9.07;;;;;;;;;;4995401;28;20498;-57
2022/03/15 14:10:55;;;;;;;16.50;8.18;;;;;;;;;;4995066;28;20030;-56
2022/03/15 14:13:25;;;;;;;17.63;8.13;;;;;;;;;;4995648;28;20018;-54
2022/03/15 14:15:59;;;;;;;10.23;6.88;;;;;;;;;;4995560;28;20022;-57
2022/03/15 14:18:26;;;;;;;11.82;7.20;;;;;;;;;;4995298;28;20395;-55